메인 페이지
METAR-TAF:

METAR-TAF

공항 :

산후안, 푸에르토리코, 미국

위도: 18-27N, 경도: 066-00W, 고도: 3m

현재 날씨관측

예보는 34분 전, 16:56시(UTC)에 발표되었습니다.
11kt
온도 30°C
습도 66%
기압 1015 hPa
시정: 16.1km
고도 2100ft 상공 구름 조금
고도 2900ft 상공 구름 보통
고도 7500ft 상공 구름 보통

METAR: TJSJ 141656Z 10011KT 10SM FEW021 SCT029 SCT075 30/23 A2996 RMK AO2 SLP145 VCSH SE T03000228 $

시각: 13:30 (17:30 UTC)

예보

예보는 5 시간 50분 전, 11:40시(UTC)에 발표되었습니다.
예보 대상 시간: 14일 12시부터 15일 12시까지 (UTC)
여러 방향의 바람 5kt
시정: 10km
고도 2500ft 상공 구름 보통
고도 5000ft 상공 구름 많음
소나기
14일 1330시부터 (UTC)
14kt
시정: 10km
고도 2500ft 상공 구름 조금
고도 5000ft 상공 구름 보통
14일 1600시부터 (UTC)
14kt, 순간 최대 풍속 24kt
시정: 10km
고도 2500ft 상공 구름 보통
고도 5000ft 상공 구름 보통
시계 내 소나기
14일 2200시부터 (UTC)
7kt
시정: 10km
고도 2500ft 상공 구름 보통
고도 5000ft 상공 구름 보통
고도 12000ft 상공 구름 많음
시계 내 소나기

TAF: TJSJ 141140Z 1412/1512 VRB05KT P6SM SHRA SCT025 BKN050 FM141330 08014KT P6SM FEW025 SCT050 FM141600 09014G24KT P6SM VCSH SCT025 SCT050 FM142200 10007KT P6SM VCSH SCT025 SCT050 BKN120

4,000개 이상의 공항 관측 자료 및 예보 (METAR 및 TAF 보고).

지도상에서 검색 가능한 기상관측소가 노란 점과 빨간 점으로 표시되어 있습니다.

기상관측소 명을 보려면 표시 위로 마우스를 이동하세요.

날씨 관측과 예보를 보려면 클릭하세요.

지도 변경 : 확대하려면 엑스 표시가 있는 녹색 버튼, 축소하려면 빼기 표시가 있는 녹색 버튼, 다음 페이지의 지도를 보려면 녹색 화살표를 클릭하세요.


METAR-TAF: